createdAt,value
2022-09-23T00:02:21.242Z,10.40
2022-09-23T00:04:51.825Z,10.20
2022-09-23T00:07:22.621Z,10.20
2022-09-23T00:09:53.183Z,10.20
2022-09-23T00:12:23.869Z,10.10
2022-09-23T00:14:54.509Z,10.10
2022-09-23T00:17:25.039Z,10.20
2022-09-23T00:19:56.105Z,10.30
2022-09-23T00:22:26.657Z,10.40
2022-09-23T00:24:57.213Z,10.40
2022-09-23T00:27:27.828Z,10.30
2022-09-23T00:29:58.431Z,10.30
2022-09-23T00:32:29.420Z,10.30
2022-09-23T00:34:59.981Z,10.20
2022-09-23T00:37:31.629Z,10.00
2022-09-23T00:40:02.639Z,9.80
2022-09-23T00:42:33.701Z,9.70
2022-09-23T00:45:05.302Z,9.70
2022-09-23T00:47:38.857Z,9.80
2022-09-23T00:50:12.668Z,9.80
2022-09-23T00:52:43.195Z,9.80
2022-09-23T00:55:17.757Z,9.90
2022-09-23T00:57:49.000Z,9.80
2022-09-23T01:00:19.638Z,9.90
2022-09-23T01:02:50.862Z,10.00
2022-09-23T01:05:22.440Z,10.00
2022-09-23T01:07:54.131Z,10.00
2022-09-23T01:10:44.946Z,10.00
2022-09-23T01:13:20.325Z,9.90
2022-09-23T01:15:54.094Z,9.80
2022-09-23T01:18:29.949Z,9.60
2022-09-23T01:21:27.169Z,9.50
2022-09-23T01:24:27.843Z,9.70
2022-09-23T01:27:05.542Z,9.80
2022-09-23T01:30:11.351Z,9.70
2022-09-23T01:33:12.245Z,9.70
2022-09-23T01:36:02.178Z,9.70
2022-09-23T01:38:39.875Z,9.70
2022-09-23T01:41:26.281Z,9.70
2022-09-23T01:44:02.216Z,9.60
2022-09-23T01:46:36.293Z,9.50
2022-09-23T01:49:10.453Z,9.60
2022-09-23T01:51:44.360Z,9.50
2022-09-23T01:54:18.464Z,9.60
2022-09-23T01:56:52.558Z,9.70
2022-09-23T01:59:26.718Z,9.80
2022-09-23T02:02:01.174Z,9.90
2022-09-23T02:04:37.379Z,10.00
2022-09-23T02:07:11.403Z,9.90
2022-09-23T02:09:45.253Z,10.10
2022-09-23T02:12:18.553Z,10.10
2022-09-23T02:14:52.404Z,10.00
2022-09-23T02:17:26.953Z,10.00
2022-09-23T02:20:01.392Z,10.00
2022-09-23T02:22:36.428Z,9.90
2022-09-23T02:25:09.681Z,9.90
2022-09-23T02:27:43.329Z,9.90
2022-09-23T02:30:17.114Z,10.00
2022-09-23T02:32:52.572Z,9.90
2022-09-23T02:35:29.480Z,9.80
2022-09-23T02:38:05.306Z,9.80
2022-09-23T02:40:39.191Z,9.80
2022-09-23T03:08:39.043Z,9.80
2022-09-23T03:11:11.981Z,9.10
2022-09-23T03:13:53.261Z,9.10
2022-09-23T03:16:30.912Z,9.10
2022-09-23T03:19:05.381Z,9.10
2022-09-23T03:21:39.379Z,9.20
2022-09-23T03:24:14.463Z,9.10
2022-09-23T03:26:48.025Z,9.00
2022-09-23T03:29:20.407Z,9.00
2022-09-23T03:31:51.452Z,8.90
2022-09-23T03:34:25.021Z,9.10
2022-09-23T03:37:01.714Z,9.20
2022-09-23T03:39:40.128Z,9.10
2022-09-23T03:42:15.368Z,9.10
2022-09-23T03:44:47.993Z,9.00
2022-09-23T03:47:19.238Z,9.00
2022-09-23T03:49:52.195Z,9.00
2022-09-23T03:52:25.328Z,9.00
2022-09-23T03:54:56.393Z,9.00
2022-09-23T03:57:45.827Z,9.00
2022-09-23T04:00:18.461Z,9.00
2022-09-23T04:02:49.822Z,8.80
2022-09-23T04:05:21.361Z,9.00
2022-09-23T04:07:52.455Z,9.10
2022-09-23T04:10:23.460Z,9.00
2022-09-23T04:12:54.541Z,8.90
2022-09-23T04:15:25.429Z,8.90
2022-09-23T04:17:56.535Z,8.80
2022-09-23T04:20:28.884Z,8.80
2022-09-23T04:22:59.986Z,8.80
2022-09-23T04:25:31.910Z,8.80
2022-09-23T04:28:03.302Z,8.80
2022-09-23T04:30:34.189Z,9.00
2022-09-23T04:33:05.170Z,9.10
2022-09-23T04:35:40.023Z,9.00
2022-09-23T04:38:10.035Z,8.90
2022-09-23T04:40:41.519Z,8.80
2022-09-23T04:43:13.746Z,8.90
2022-09-23T04:45:44.591Z,8.80
2022-09-23T04:48:16.281Z,8.80
2022-09-23T04:50:48.975Z,8.80
2022-09-23T04:53:19.852Z,8.60
2022-09-23T04:55:52.420Z,8.60
2022-09-23T04:58:24.909Z,8.50
2022-09-23T05:01:01.726Z,8.50
2022-09-23T05:03:30.785Z,8.50
2022-09-23T05:06:02.685Z,8.60
2022-09-23T05:08:33.696Z,8.50
2022-09-23T05:11:06.055Z,8.60
2022-09-23T05:13:37.662Z,8.60
2022-09-23T05:16:12.425Z,8.60
2022-09-23T05:18:45.365Z,8.70
2022-09-23T05:21:18.275Z,8.50
2022-09-23T05:23:52.733Z,8.60
2022-09-23T05:26:25.584Z,8.50
2022-09-23T05:28:57.224Z,8.60
2022-09-23T05:34:08.667Z,8.60
2022-09-23T05:36:42.329Z,8.60
2022-09-23T05:39:14.136Z,8.60
2022-09-23T05:41:46.808Z,8.50
2022-09-23T05:44:18.665Z,8.40
2022-09-23T05:46:49.518Z,8.40
2022-09-23T05:49:20.448Z,8.50
2022-09-23T05:51:51.021Z,8.60
2022-09-23T05:54:21.646Z,8.70
2022-09-23T05:56:52.529Z,8.80
2022-09-23T05:59:23.139Z,8.80
2022-09-23T06:01:56.504Z,8.80
2022-09-23T06:04:26.287Z,8.80
2022-09-23T06:07:02.764Z,8.90
2022-09-23T06:09:35.613Z,8.80
2022-09-23T06:12:04.191Z,8.80
2022-09-23T06:14:35.064Z,8.90
2022-09-23T06:17:06.009Z,8.90
2022-09-23T06:19:36.784Z,9.00
2022-09-23T06:22:07.521Z,9.10
2022-09-23T06:24:38.261Z,9.20
2022-09-23T06:27:10.663Z,9.30
2022-09-23T06:29:41.317Z,9.50
2022-09-23T06:32:12.942Z,9.70
2022-09-23T06:34:51.483Z,9.80
2022-09-23T06:37:20.500Z,9.60
2022-09-23T06:39:52.705Z,9.90
2022-09-23T06:42:23.716Z,10.10
2022-09-23T06:44:54.551Z,10.30
2022-09-23T06:47:25.235Z,10.50
2022-09-23T06:49:55.908Z,10.60
2022-09-23T06:52:26.863Z,10.60
2022-09-23T06:54:57.546Z,10.50
2022-09-23T06:57:29.602Z,10.70
2022-09-23T07:00:00.368Z,10.90
2022-09-23T07:02:31.174Z,10.80
2022-09-23T07:05:02.018Z,10.90
2022-09-23T07:07:35.680Z,11.10
2022-09-23T07:10:07.955Z,11.40
2022-09-23T07:12:38.819Z,11.50
2022-09-23T07:15:12.679Z,11.70
2022-09-23T07:17:45.252Z,12.00
2022-09-23T07:20:17.700Z,12.20
2022-09-23T07:22:52.941Z,12.40
2022-09-23T07:25:23.987Z,12.50
2022-09-23T07:27:56.429Z,12.50
2022-09-23T07:30:27.234Z,12.60
2022-09-23T07:32:58.014Z,12.60
2022-09-23T07:35:28.924Z,12.60
2022-09-23T07:38:00.077Z,12.50
2022-09-23T07:40:31.444Z,12.70
2022-09-23T07:43:04.634Z,12.90
2022-09-23T07:45:36.195Z,13.20
2022-09-23T07:48:07.471Z,13.30
2022-09-23T07:50:40.201Z,13.40
2022-09-23T07:53:13.220Z,13.60
2022-09-23T07:55:44.380Z,13.80
2022-09-23T07:58:15.522Z,13.90
2022-09-23T08:00:46.847Z,13.90
2022-09-23T08:03:18.757Z,13.90
2022-09-23T08:05:49.484Z,14.00
2022-09-23T08:08:20.248Z,13.90
2022-09-23T08:10:51.065Z,14.00
2022-09-23T08:13:21.680Z,14.10
2022-09-23T08:15:55.521Z,14.10
2022-09-23T08:18:25.049Z,14.10
2022-09-23T08:20:55.816Z,14.30
2022-09-23T08:23:26.874Z,14.30
2022-09-23T08:26:01.094Z,14.20
2022-09-23T08:28:33.504Z,14.40
2022-09-23T08:31:04.489Z,14.50
2022-09-23T08:33:35.225Z,14.70
2022-09-23T08:36:07.478Z,14.70
2022-09-23T08:38:38.138Z,14.80
2022-09-23T08:41:14.336Z,15.00
2022-09-23T08:43:48.398Z,14.90
2022-09-23T08:46:22.412Z,15.30
2022-09-23T08:48:53.990Z,15.30
2022-09-23T08:51:29.575Z,15.60
2022-09-23T08:54:01.323Z,15.90
2022-09-23T08:56:35.457Z,16.00
2022-09-23T08:59:08.644Z,16.00
2022-09-23T09:01:44.788Z,16.00
2022-09-23T09:04:22.241Z,16.00
2022-09-23T09:07:07.584Z,16.20
2022-09-23T09:09:32.162Z,16.50
2022-09-23T09:12:06.769Z,16.60
2022-09-23T09:14:42.976Z,16.40
2022-09-23T09:17:18.717Z,16.30
2022-09-23T09:19:57.565Z,16.20
2022-09-23T09:22:46.213Z,16.30
2022-09-23T09:25:33.426Z,16.50
2022-09-23T09:28:01.139Z,16.70
2022-09-23T09:30:32.550Z,16.90
2022-09-23T09:33:06.936Z,16.90
2022-09-23T09:35:40.885Z,17.00
2022-09-23T09:38:11.883Z,17.30
2022-09-23T09:40:46.254Z,17.20
2022-09-23T09:43:22.057Z,17.30
2022-09-23T09:46:00.517Z,17.20
2022-09-23T09:48:36.607Z,17.40
2022-09-23T09:51:22.044Z,17.60
2022-09-23T09:53:53.068Z,17.80
2022-09-23T09:56:27.418Z,18.20
2022-09-23T09:59:02.135Z,18.30
2022-09-23T10:01:34.970Z,18.50
2022-09-23T10:04:07.844Z,18.50
2022-09-23T10:06:38.829Z,18.60
2022-09-23T10:09:17.253Z,18.60
2022-09-23T10:12:05.806Z,18.80
2022-09-23T10:17:18.694Z,19.10
2022-09-23T10:19:52.606Z,19.40
2022-09-23T10:22:28.843Z,19.50
2022-09-23T10:25:04.077Z,19.60
2022-09-23T10:27:36.746Z,19.70
2022-09-23T10:30:12.457Z,19.80
2022-09-23T10:32:46.538Z,20.00
2022-09-23T10:35:20.864Z,20.20
2022-09-23T10:37:53.705Z,20.10
2022-09-23T10:40:45.521Z,20.30
2022-09-23T10:43:44.988Z,20.60
2022-09-23T10:46:42.366Z,20.70
2022-09-23T10:49:59.824Z,21.00
2022-09-23T10:52:41.194Z,20.80
2022-09-23T10:55:21.685Z,20.80
2022-09-23T10:58:02.740Z,21.30
2022-09-23T11:00:38.483Z,21.40
2022-09-23T11:03:46.498Z,21.60
2022-09-23T11:06:22.005Z,21.80
2022-09-23T11:09:01.160Z,21.80
2022-09-23T11:11:38.813Z,21.90
2022-09-23T11:14:23.607Z,22.10
2022-09-23T11:17:14.232Z,22.50
2022-09-23T11:20:10.647Z,22.30
2022-09-23T11:22:53.342Z,22.50
2022-09-23T11:25:32.120Z,22.60
2022-09-23T11:28:16.002Z,22.60
2022-09-23T11:30:50.341Z,22.80
2022-09-23T11:33:35.523Z,22.80
2022-09-23T11:36:09.430Z,22.20
2022-09-23T11:38:44.168Z,22.50
2022-09-23T11:41:19.685Z,22.90
2022-09-23T11:43:53.392Z,22.90
2022-09-23T11:46:31.247Z,23.60
2022-09-23T11:49:15.162Z,23.90
2022-09-23T11:51:50.366Z,24.60
2022-09-23T11:54:26.269Z,25.10
2022-09-23T11:57:00.516Z,25.00
2022-09-23T11:59:40.344Z,25.40
2022-09-23T12:04:58.378Z,25.00
2022-09-23T12:07:33.378Z,25.00
2022-09-23T12:10:07.066Z,25.20
2022-09-23T12:12:41.878Z,25.10
2022-09-23T12:15:17.032Z,25.40
2022-09-23T12:18:09.926Z,25.40
2022-09-23T12:21:15.065Z,24.80
2022-09-23T12:23:53.287Z,24.50
2022-09-23T12:26:26.957Z,24.60
2022-09-23T12:29:02.102Z,24.90
2022-09-23T12:31:37.552Z,25.10
2022-09-23T12:36:47.221Z,25.40
2022-09-23T12:39:20.711Z,24.70
2022-09-23T12:41:54.121Z,25.20
2022-09-23T12:44:36.969Z,25.90
2022-09-23T12:47:41.342Z,26.20
2022-09-23T12:50:47.330Z,26.40
2022-09-23T12:53:57.095Z,25.90
2022-09-23T12:56:31.996Z,26.20
2022-09-23T12:59:23.866Z,25.40
2022-09-23T13:01:55.475Z,25.00
2022-09-23T13:04:56.323Z,24.80
2022-09-23T13:07:31.099Z,24.90
2022-09-23T13:12:46.441Z,24.80
2022-09-23T13:15:21.816Z,24.40
2022-09-23T13:17:52.829Z,24.60
2022-09-23T13:20:38.496Z,24.70
2022-09-23T13:23:25.311Z,24.60
2022-09-23T13:25:58.938Z,25.00
2022-09-23T13:28:38.588Z,25.10
2022-09-23T13:31:14.810Z,24.80
2022-09-23T13:36:23.750Z,23.90
2022-09-23T13:38:54.459Z,23.40
2022-09-23T13:41:28.929Z,23.10
2022-09-23T13:44:01.051Z,23.40
2022-09-23T13:46:34.331Z,23.40
2022-09-23T13:49:07.227Z,23.40
2022-09-23T13:51:38.448Z,23.20
2022-09-23T13:54:17.300Z,22.90
2022-09-23T13:56:50.697Z,22.70
2022-09-23T13:59:27.482Z,22.60
2022-09-23T14:02:09.059Z,22.50
2022-09-23T14:07:19.261Z,22.40
2022-09-23T14:09:52.637Z,22.60
2022-09-23T14:12:23.521Z,23.20
2022-09-23T14:14:55.319Z,23.00
2022-09-23T14:20:04.051Z,22.80
2022-09-23T14:22:34.837Z,22.60
2022-09-23T14:25:06.609Z,22.40
2022-09-23T14:27:37.847Z,22.20
2022-09-23T14:30:15.424Z,22.20
2022-09-23T14:32:49.103Z,22.40
2022-09-23T14:35:24.285Z,22.60
2022-09-23T14:38:14.742Z,22.80
2022-09-23T14:40:57.445Z,22.50
2022-09-23T14:46:04.560Z,22.60
2022-09-23T14:48:37.215Z,22.60
2022-09-23T14:51:14.665Z,22.50
2022-09-23T14:53:45.798Z,22.50
2022-09-23T14:56:19.392Z,22.50
2022-09-23T14:58:55.594Z,22.40
2022-09-23T15:01:40.577Z,22.30
2022-09-23T15:04:18.377Z,22.30
2022-09-23T15:06:53.510Z,22.00
2022-09-23T15:09:27.348Z,21.90
2022-09-23T15:12:02.309Z,21.80
2022-09-23T15:14:38.789Z,21.70
2022-09-23T15:17:17.715Z,21.60
2022-09-23T15:19:51.788Z,21.50
2022-09-23T15:22:22.785Z,21.20
2022-09-23T15:24:54.884Z,21.10
2022-09-23T15:27:33.700Z,21.20
2022-09-23T15:30:17.217Z,21.20
2022-09-23T15:32:48.562Z,21.20
2022-09-23T15:35:21.626Z,21.10
2022-09-23T15:37:54.200Z,21.10
2022-09-23T15:40:27.034Z,21.10
2022-09-23T15:42:59.893Z,21.00
2022-09-23T15:45:35.328Z,20.70
2022-09-23T15:50:47.334Z,20.70
2022-09-23T15:53:21.943Z,20.60
2022-09-23T15:55:53.506Z,20.40
2022-09-23T15:58:26.408Z,20.30
2022-09-23T16:00:58.132Z,20.30
2022-09-23T16:03:29.492Z,20.30
2022-09-23T16:06:04.335Z,20.10
2022-09-23T16:08:35.041Z,20.00
2022-09-23T16:11:06.631Z,19.90
2022-09-23T16:13:39.292Z,19.70
2022-09-23T16:16:10.872Z,19.70
2022-09-23T16:18:44.730Z,19.50
2022-09-23T16:21:17.919Z,19.50
2022-09-23T16:23:51.520Z,19.50
2022-09-23T16:26:25.130Z,19.40
2022-09-23T16:28:58.289Z,19.30
2022-09-23T16:34:07.268Z,19.40
2022-09-23T16:36:42.135Z,19.20
2022-09-23T16:39:15.109Z,19.20
2022-09-23T16:41:45.824Z,19.10
2022-09-23T16:44:16.612Z,19.00
2022-09-23T16:46:47.274Z,18.90
2022-09-23T16:49:19.940Z,18.80
2022-09-23T16:51:50.558Z,18.70
2022-09-23T16:54:23.097Z,18.60
2022-09-23T16:56:55.270Z,18.60
2022-09-23T16:59:28.394Z,18.60
2022-09-23T17:02:16.847Z,18.50
2022-09-23T17:04:47.793Z,18.40
2022-09-23T17:07:19.229Z,18.30
2022-09-23T17:09:51.005Z,18.30
2022-09-23T17:12:25.316Z,18.30
2022-09-23T17:14:56.119Z,18.20
2022-09-23T17:17:45.461Z,18.20
2022-09-23T17:20:16.931Z,18.00
2022-09-23T17:22:47.636Z,18.00
2022-09-23T17:25:20.822Z,18.00
2022-09-23T17:27:51.969Z,17.90
2022-09-23T17:30:23.624Z,18.00
2022-09-23T17:32:54.389Z,18.00
2022-09-23T17:35:25.007Z,17.90
2022-09-23T17:37:55.613Z,17.80
2022-09-23T17:40:26.616Z,17.70
2022-09-23T17:42:57.269Z,17.70
2022-09-23T17:45:28.379Z,17.70
2022-09-23T17:47:59.007Z,17.60
2022-09-23T17:53:07.900Z,17.50
2022-09-23T17:55:38.492Z,17.40
2022-09-23T17:58:09.143Z,17.30
2022-09-23T18:00:39.925Z,17.20
2022-09-23T18:03:10.664Z,17.10
2022-09-23T18:05:41.283Z,17.10
2022-09-23T18:10:50.535Z,17.00
2022-09-23T18:13:21.216Z,16.90
2022-09-23T18:15:51.986Z,16.80
2022-09-23T18:18:22.642Z,16.90
2022-09-23T18:20:53.520Z,16.90
2022-09-23T18:23:26.205Z,16.90
2022-09-23T18:25:57.144Z,16.80
2022-09-23T18:28:33.937Z,16.80
2022-09-23T18:31:02.782Z,16.80
2022-09-23T18:33:33.353Z,16.70
2022-09-23T18:36:04.500Z,16.70
2022-09-23T18:38:35.635Z,16.80
2022-09-23T18:41:08.316Z,16.80
2022-09-23T18:43:41.598Z,16.80
2022-09-23T18:46:14.449Z,16.80
2022-09-23T18:49:03.749Z,16.90
2022-09-23T18:51:36.938Z,16.80
2022-09-23T18:54:09.440Z,16.80
2022-09-23T18:56:44.810Z,16.70
2022-09-23T18:59:18.039Z,16.70
2022-09-23T19:01:50.518Z,16.70
2022-09-23T19:04:23.522Z,16.70
2022-09-23T19:06:58.150Z,16.60
2022-09-23T19:09:29.018Z,16.60
2022-09-23T19:12:01.031Z,16.60
2022-09-23T19:14:32.184Z,16.70
2022-09-23T19:17:04.853Z,16.70
2022-09-23T19:19:35.581Z,16.70
2022-09-23T19:22:06.929Z,16.70
2022-09-23T19:24:38.192Z,16.70
2022-09-23T19:27:10.298Z,16.80
2022-09-23T19:29:41.233Z,16.80
2022-09-23T19:32:14.252Z,16.90
2022-09-23T19:34:46.758Z,16.80
2022-09-23T19:37:18.103Z,16.80
2022-09-23T19:39:50.203Z,16.70
2022-09-23T19:42:21.656Z,16.60
2022-09-23T19:44:53.277Z,16.60
2022-09-23T19:47:24.720Z,16.60
2022-09-23T19:49:56.120Z,16.60
2022-09-23T19:52:27.359Z,16.50
2022-09-23T19:54:58.706Z,16.60
2022-09-23T19:57:31.181Z,16.60
2022-09-23T20:00:02.040Z,16.60
2022-09-23T20:02:32.903Z,16.60
2022-09-23T20:05:03.850Z,16.60
2022-09-23T20:07:34.688Z,16.60
2022-09-23T20:10:05.760Z,16.70
2022-09-23T20:12:37.236Z,16.80
2022-09-23T20:15:09.365Z,16.90
2022-09-23T20:17:40.351Z,17.00
2022-09-23T20:20:15.546Z,17.00
2022-09-23T20:22:46.946Z,17.10
2022-09-23T20:25:18.016Z,17.10
2022-09-23T20:27:53.644Z,17.10
2022-09-23T20:30:24.623Z,17.10
2022-09-23T20:32:55.598Z,17.10
2022-09-23T20:35:26.560Z,17.10
2022-09-23T20:37:57.230Z,17.10
2022-09-23T20:40:27.834Z,17.10
2022-09-23T20:42:59.100Z,17.10
2022-09-23T20:45:29.622Z,17.00
2022-09-23T20:48:00.642Z,17.00
2022-09-23T20:50:31.454Z,17.10
2022-09-23T20:53:02.049Z,17.10
2022-09-23T20:55:32.778Z,17.00
2022-09-23T20:58:04.761Z,17.00
2022-09-23T21:00:36.541Z,17.00
2022-09-23T21:03:07.216Z,16.90
2022-09-23T21:05:37.832Z,16.80
2022-09-23T21:08:08.445Z,16.90
2022-09-23T21:10:39.211Z,16.90
2022-09-23T21:13:10.270Z,16.90
2022-09-23T21:15:41.826Z,16.90
2022-09-23T21:18:15.602Z,17.00
2022-09-23T21:20:44.774Z,17.00
2022-09-23T21:23:15.302Z,17.00
2022-09-23T21:25:45.813Z,17.00
2022-09-23T21:28:16.751Z,17.00
2022-09-23T21:30:51.697Z,17.00
2022-09-23T21:33:19.714Z,17.00
2022-09-23T21:35:51.713Z,17.00
2022-09-23T21:38:22.228Z,16.90
2022-09-23T21:40:59.504Z,16.90
2022-09-23T21:43:32.584Z,16.80
2022-09-23T21:46:05.147Z,16.80
2022-09-23T21:48:37.600Z,16.80
2022-09-23T21:51:10.049Z,16.90
2022-09-23T21:53:41.361Z,16.90
2022-09-23T21:56:18.095Z,16.80
2022-09-23T21:59:05.344Z,16.80
2022-09-23T22:01:38.429Z,16.70
2022-09-23T22:04:13.785Z,16.70
2022-09-23T22:06:44.774Z,16.60
2022-09-23T22:09:17.807Z,16.70
2022-09-23T22:12:08.728Z,16.70
2022-09-23T22:14:39.824Z,16.70
2022-09-23T22:17:12.373Z,16.60
2022-09-23T22:19:47.047Z,16.60
2022-09-23T22:22:19.424Z,16.70
2022-09-23T22:24:51.502Z,16.60
2022-09-23T22:27:24.066Z,16.60
2022-09-23T22:30:12.067Z,16.70
2022-09-23T22:32:43.792Z,16.70
2022-09-23T22:35:17.975Z,16.80
2022-09-23T22:37:48.722Z,16.80
2022-09-23T22:40:19.703Z,16.80
2022-09-23T22:42:50.281Z,16.70
2022-09-23T22:45:21.249Z,16.70
2022-09-23T22:47:53.498Z,16.70
2022-09-23T22:50:24.070Z,16.70
2022-09-23T22:52:54.595Z,16.70
2022-09-23T22:55:25.637Z,16.70
2022-09-23T22:57:56.181Z,16.60
2022-09-23T23:00:28.221Z,16.60
2022-09-23T23:03:00.410Z,16.50
2022-09-23T23:05:30.942Z,16.40
2022-09-23T23:08:02.088Z,16.30
2022-09-23T23:10:32.670Z,16.10
2022-09-23T23:13:03.242Z,15.90
2022-09-23T23:15:33.767Z,15.70
2022-09-23T23:18:04.450Z,15.60
2022-09-23T23:20:35.026Z,15.40
2022-09-23T23:23:05.721Z,15.40
2022-09-23T23:25:36.318Z,15.20
2022-09-23T23:28:06.987Z,15.10
2022-09-23T23:30:37.546Z,15.10
2022-09-23T23:33:08.083Z,15.00
2022-09-23T23:35:38.758Z,14.90
2022-09-23T23:38:10.846Z,14.90
2022-09-23T23:40:41.442Z,14.80
2022-09-23T23:43:12.039Z,14.70
2022-09-23T23:45:44.015Z,14.70
2022-09-23T23:48:14.708Z,14.70
2022-09-23T23:50:45.418Z,14.80
2022-09-23T23:53:16.461Z,14.70
2022-09-23T23:55:47.262Z,14.70
2022-09-23T23:58:18.844Z,14.70
